Česky Dansk Deutsch English Español Suomi Français Magyar Italiano Nederlands norsk Polski Português svenska Türkçe

 

Het Weer

Afyon (Turkije)

07:32, 14 augustus 2016 (GMT)

NWNNE
WE
SWSSE
Home            
Afyon Usak Suleyman Demirel Sivrihisar Isparta Eskisehir Cardak Bursa / Yenisehir, Mil-Civ Konya Bursa Topel Tur-Afb Ankara / Etimesgut Antalya Murted Tur-Afb Ankara / Guvercin Lik Akhisar Balikesir Aydin Ankara / Esenboga Istanbul / Sabiha Gokcen Dalaman Bandirma Istanbul / Ataturk

Om een weerknop op uw website of weblog te plaatsen, copieer onderstaande code en plak die in uw pagina. In het eerste vakje staat HTML-code, in het tweede vakje UBB-code.


Add to Google

Details

Wind speed:1 bf, 3 kn, 1.5 m/s, 3.5 miles/h, 5.6 km/h
Wind direction:WNW, 290° - NNE, 030°
Visibility: 6000 m, 6.0 km, 19685 ft, 3.7 miles
Clouds:Durchbrochene Bewölkung at 2000 ft, 610 m
Temperature:16°C, 61°F
Dew-point:14°C, 57°F
Atmospheric pressure:1021 hPa, 765.8 mmHg, 30.15 inHg, 1.008 atm
Relative humidity:87.9 %
METAR:LTAH 140732Z 34003KT 290V030 6000 BKN020 16/14 Q1021 REDZ RMK RWY13 30005KT

Snelkoppelingen

Actuele weersinformatie van de hele wereld. Voeg locaties toe met het plus (+) symbool. Deze snelkoppelingen kunnen worden toegevoegd aan Google.

Lid van de Technetium groep

website free tracking
StatCounter NetStat W3C Validator

15-08-2022 09:31:29
astro.technetium.be money.technetium.be phote.technetium.be tafeltennistafel.technetium.be www.ligfiets.net